Airport View

Enter AWOS ICAO identifier for current METAR.

ex. KFNL

KLEW 080856Z AUTO 00000KT 10SM CLR M02/M03 A2961 RMK AO2 SLP035 T10171028 56020 FZRANO

8 Apr 2020 09:38

Frequency: 118.025

Phone: 207-783-2806

Other Area AWOS: KPWM - KIWI - KAUG - KIZG

TAF AMD KPWM 080908Z 0809/0906 01004KT P6SM SCT200 FM081700 15008KT P6SM BKN100